Time;durP1;ratioP1;P1;durP2;ratioP2;P2;SDS_P1;SDS_P2;PMS_P1;PMS_P2;Temp;Humidity;BMP_temperature;BMP_pressure;BME280_temperature;BME280_humidity;BME280_pressure;Samples;Min_cycle;Max_cycle;Signal;HPM_P1;HPM_P2
2021/12/28 00:00:15;;;;;;;12.68;7.35;;;8.50;99.90;;;;;;5093935;28;20165;-73
2021/12/28 00:02:44;;;;;;;12.55;6.70;;;8.60;99.90;;;;;;5093847;28;20024;-73
2021/12/28 00:05:10;;;;;;;15.02;6.47;;;8.50;99.90;;;;;;5093405;28;20482;-72
2021/12/28 00:07:37;;;;;;;12.07;6.93;;;8.60;99.90;;;;;;5094064;28;20021;-72
2021/12/28 00:10:05;;;;;;;12.40;6.70;;;8.60;99.90;;;;;;5075397;28;20482;-73
2021/12/28 00:12:33;;;;;;;14.73;7.32;;;8.60;99.90;;;;;;5093708;28;20135;-73
2021/12/28 00:15:18;;;;;;;11.65;6.70;;;8.60;99.90;;;;;;5093642;28;20020;-72
2021/12/28 00:17:59;;;;;;;12.90;6.93;;;8.60;99.90;;;;;;5093611;28;20020;-72
2021/12/28 00:20:26;;;;;;;11.23;6.53;;;8.60;99.90;;;;;;5093732;28;20483;-72
2021/12/28 00:22:51;;;;;;;12.18;6.68;;;8.50;99.90;;;;;;5075388;28;20115;-72
2021/12/28 00:25:17;;;;;;;10.82;6.43;;;8.50;99.90;;;;;;5075510;28;20112;-73
2021/12/28 00:27:43;;;;;;;10.65;6.28;;;8.50;99.90;;;;;;5093926;28;20388;-73
2021/12/28 00:30:10;;;;;;;10.95;6.30;;;8.40;99.90;;;;;;5093304;28;20376;-72
2021/12/28 00:32:35;;;;;;;10.48;5.88;;;8.40;99.90;;;;;;5075436;28;20024;-73
2021/12/28 00:35:02;;;;;;;11.85;6.15;;;8.40;99.90;;;;;;5093144;28;20438;-73
2021/12/28 00:37:27;;;;;;;11.75;6.43;;;8.30;99.90;;;;;;5093558;28;20027;-72
2021/12/28 00:39:53;;;;;;;13.63;6.32;;;8.20;99.90;;;;;;5092927;28;20020;-73
2021/12/28 00:42:19;;;;;;;12.73;5.38;;;8.20;99.90;;;;;;5093269;28;20432;-72
2021/12/28 00:44:44;;;;;;;10.77;6.22;;;8.20;99.90;;;;;;5093649;28;20424;-72
2021/12/28 00:47:10;;;;;;;13.10;5.70;;;8.20;99.90;;;;;;5093845;28;20023;-71
2021/12/28 00:49:36;;;;;;;15.93;5.90;;;8.10;99.90;;;;;;5092960;28;20174;-72
2021/12/28 00:52:01;;;;;;;10.50;5.18;;;8.10;99.90;;;;;;5092991;28;20024;-73
2021/12/28 00:54:27;;;;;;;11.40;5.60;;;8.00;99.90;;;;;;5093379;28;20498;-73
2021/12/28 00:56:53;;;;;;;11.27;6.28;;;8.00;99.90;;;;;;5093568;28;20061;-72
2021/12/28 00:59:18;;;;;;;12.52;5.70;;;8.00;99.90;;;;;;5092925;28;20056;-72
2021/12/28 01:01:44;;;;;;;10.90;5.25;;;8.00;99.90;;;;;;5092795;28;20024;-72
2021/12/28 01:04:10;;;;;;;8.65;4.72;;;8.00;99.90;;;;;;5092941;28;20365;-72
2021/12/28 01:06:35;;;;;;;10.15;5.28;;;8.00;99.90;;;;;;5075576;28;20397;-73
2021/12/28 01:09:01;;;;;;;12.65;5.45;;;8.00;99.90;;;;;;5092986;28;20471;-80
2021/12/28 01:11:27;;;;;;;12.27;5.85;;;7.90;99.90;;;;;;5093118;28;20384;-74
2021/12/28 01:13:52;;;;;;;12.68;5.05;;;7.90;99.90;;;;;;5093814;28;20043;-73
2021/12/28 01:16:18;;;;;;;11.93;5.53;;;7.80;99.90;;;;;;5074910;28;20426;-73
2021/12/28 01:18:44;;;;;;;12.30;5.18;;;7.80;99.90;;;;;;5093116;28;20020;-72
2021/12/28 01:21:10;;;;;;;10.18;5.50;;;7.70;99.90;;;;;;5093267;28;20028;-74
2021/12/28 01:23:36;;;;;;;14.55;5.45;;;7.70;99.90;;;;;;5093486;28;20080;-71
2021/12/28 01:26:02;;;;;;;14.75;4.60;;;7.70;99.90;;;;;;5075089;28;20065;-72
2021/12/28 01:28:28;;;;;;;9.82;5.28;;;7.60;99.90;;;;;;5071166;28;20056;-73
2021/12/28 01:30:54;;;;;;;12.20;5.43;;;7.60;99.90;;;;;;5071451;28;20021;-72
2021/12/28 01:33:20;;;;;;;12.02;5.18;;;7.60;99.90;;;;;;5072687;28;20100;-73
2021/12/28 01:35:46;;;;;;;16.95;5.07;;;7.60;99.90;;;;;;5072412;28;20027;-72
2021/12/28 01:38:12;;;;;;;10.82;4.72;;;7.60;99.90;;;;;;5070878;28;20031;-73
2021/12/28 01:40:41;;;;;;;8.30;4.50;;;7.60;99.90;;;;;;5072270;28;20028;-73
2021/12/28 01:43:17;;;;;;;8.95;4.63;;;7.50;99.90;;;;;;5072531;28;20024;-72
2021/12/28 01:45:47;;;;;;;10.13;5.32;;;7.60;99.90;;;;;;5073226;28;20150;-73
2021/12/28 01:48:19;;;;;;;10.40;4.73;;;7.60;99.90;;;;;;5072184;28;20024;-73
2021/12/28 01:50:46;;;;;;;14.23;4.90;;;7.70;99.90;;;;;;5076020;28;20021;-73
2021/12/28 01:53:12;;;;;;;8.98;4.15;;;7.80;99.90;;;;;;5074788;28;20028;-72
2021/12/28 01:55:41;;;;;;;8.25;4.78;;;7.90;99.90;;;;;;5075192;28;20146;-72
2021/12/28 01:58:07;;;;;;;8.40;4.20;;;7.90;99.90;;;;;;5076007;28;20028;-73
2021/12/28 02:00:34;;;;;;;7.45;4.38;;;7.90;99.90;;;;;;5076068;28;20020;-72
2021/12/28 02:03:05;;;;;;;9.55;4.40;;;8.00;99.90;;;;;;5074685;28;20419;-72
2021/12/28 02:05:31;;;;;;;10.07;3.65;;;8.00;99.90;;;;;;5075710;28;20099;-73
2021/12/28 02:07:57;;;;;;;11.57;3.92;;;8.00;99.90;;;;;;5075640;28;20170;-72
2021/12/28 02:10:22;;;;;;;6.88;3.67;;;8.00;99.90;;;;;;5076038;28;20075;-73
2021/12/28 02:12:48;;;;;;;10.95;4.45;;;8.00;99.90;;;;;;5075845;28;20104;-72
2021/12/28 02:15:15;;;;;;;8.65;3.80;;;8.00;99.90;;;;;;5075391;28;20024;-73
2021/12/28 02:17:41;;;;;;;7.32;3.58;;;8.10;99.90;;;;;;5075698;28;20158;-72
2021/12/28 02:20:13;;;;;;;9.82;4.43;;;8.10;99.90;;;;;;5074258;28;20393;-71
2021/12/28 02:22:40;;;;;;;12.90;3.53;;;8.00;99.90;;;;;;5074647;28;20457;-72
2021/12/28 02:25:07;;;;;;;13.80;4.30;;;8.00;99.90;;;;;;5075901;28;20100;-73
2021/12/28 02:27:34;;;;;;;8.35;4.22;;;8.00;99.90;;;;;;5074290;28;20045;-71
2021/12/28 02:30:00;;;;;;;11.60;4.53;;;8.00;99.90;;;;;;5075245;28;20375;-72
2021/12/28 02:32:29;;;;;;;10.40;5.25;;;8.00;99.90;;;;;;5075451;28;20035;-72
2021/12/28 02:34:57;;;;;;;11.07;4.70;;;8.00;99.90;;;;;;5074448;28;20029;-72
2021/12/28 02:37:23;;;;;;;12.40;5.30;;;8.00;99.90;;;;;;5074106;28;20028;-72
2021/12/28 02:39:50;;;;;;;14.10;4.95;;;8.10;99.90;;;;;;5075267;28;20028;-72
2021/12/28 02:42:20;;;;;;;10.35;5.03;;;8.10;99.90;;;;;;5075223;28;20029;-73
2021/12/28 02:44:58;;;;;;;9.20;4.82;;;8.10;99.90;;;;;;5075166;28;20024;-73
2021/12/28 02:47:24;;;;;;;10.15;4.30;;;8.10;99.90;;;;;;5074214;28;20411;-72
2021/12/28 02:49:50;;;;;;;7.57;4.18;;;8.10;99.90;;;;;;5075263;28;20508;-72
2021/12/28 02:52:16;;;;;;;9.70;5.10;;;8.10;99.90;;;;;;5074725;28;20020;-72
2021/12/28 02:54:42;;;;;;;12.43;5.20;;;8.10;99.90;;;;;;5074023;28;20016;-73
2021/12/28 02:57:07;;;;;;;12.68;5.95;;;8.00;99.90;;;;;;5075370;28;20472;-72
2021/12/28 02:59:33;;;;;;;11.25;5.32;;;8.00;99.90;;;;;;5074565;28;20075;-72
2021/12/28 03:01:59;;;;;;;15.70;5.60;;;8.00;99.90;;;;;;5074754;28;20033;-72
2021/12/28 03:04:27;;;;;;;8.75;4.68;;;8.00;99.90;;;;;;5074797;28;20025;-73
2021/12/28 03:06:54;;;;;;;9.70;5.38;;;7.90;99.90;;;;;;5073743;28;20454;-72
2021/12/28 03:09:21;;;;;;;11.80;4.90;;;7.90;99.90;;;;;;5073645;28;20035;-72
2021/12/28 03:11:47;;;;;;;10.80;5.57;;;7.90;99.90;;;;;;5074485;28;20056;-72
2021/12/28 03:14:12;;;;;;;8.55;4.47;;;7.90;99.90;;;;;;5073314;28;20020;-73
2021/12/28 03:16:38;;;;;;;9.68;5.05;;;7.80;99.90;;;;;;5074636;28;20031;-73
2021/12/28 03:19:05;;;;;;;13.00;5.03;;;7.80;99.90;;;;;;5074626;28;20025;-73
2021/12/28 03:21:31;;;;;;;10.55;5.40;;;7.80;99.90;;;;;;5074482;28;20086;-72
2021/12/28 03:23:57;;;;;;;10.38;4.82;;;7.80;99.90;;;;;;5074814;28;20429;-73
2021/12/28 03:26:24;;;;;;;10.52;4.50;;;7.80;99.90;;;;;;5073077;28;20028;-72
2021/12/28 03:28:50;;;;;;;9.52;4.95;;;7.80;99.90;;;;;;5089168;28;20047;-73
2021/12/28 03:31:20;;;;;;;10.30;5.80;;;7.90;99.90;;;;;;5076591;28;20115;-73
2021/12/28 03:33:48;;;;;;;13.57;5.32;;;7.90;99.90;;;;;;5094621;28;20076;-72
2021/12/28 03:36:17;;;;;;;15.93;5.53;;;7.90;99.90;;;;;;5094747;28;20031;-73
2021/12/28 03:38:44;;;;;;;11.98;5.20;;;7.90;99.90;;;;;;5076158;28;20437;-73
2021/12/28 03:41:12;;;;;;;8.20;5.43;;;7.80;99.90;;;;;;5094900;28;20024;-73
2021/12/28 03:43:43;;;;;;;10.77;4.97;;;7.70;99.90;;;;;;5094576;28;20028;-73
2021/12/28 03:46:09;;;;;;;7.47;5.10;;;7.60;99.90;;;;;;5094306;28;20047;-73
2021/12/28 03:48:36;;;;;;;12.93;4.85;;;7.60;99.90;;;;;;5094267;28;20044;-72
2021/12/28 03:51:02;;;;;;;10.98;5.38;;;7.60;99.90;;;;;;5094267;28;20457;-73
2021/12/28 03:53:29;;;;;;;12.23;5.68;;;7.60;99.90;;;;;;5094029;28;20024;-73
2021/12/28 03:55:55;;;;;;;10.05;4.68;;;7.70;99.90;;;;;;5075863;28;20028;-73
2021/12/28 03:58:21;;;;;;;9.80;5.07;;;7.70;99.90;;;;;;5093595;28;20032;-72
2021/12/28 04:00:48;;;;;;;12.45;4.75;;;7.70;99.90;;;;;;5094596;28;20474;-72
2021/12/28 04:03:14;;;;;;;10.65;5.45;;;7.70;99.90;;;;;;5075677;28;20123;-74
2021/12/28 04:05:43;;;;;;;9.45;5.07;;;7.80;99.90;;;;;;5093722;28;20052;-72
2021/12/28 04:08:09;;;;;;;12.57;5.30;;;7.80;99.90;;;;;;5094149;28;20329;-73
2021/12/28 04:10:50;;;;;;;9.45;4.60;;;7.80;99.90;;;;;;5093109;28;20024;-72
2021/12/28 04:13:17;;;;;;;9.60;5.07;;;7.80;99.90;;;;;;5093874;28;20020;-73
2021/12/28 04:15:43;;;;;;;8.80;4.80;;;7.80;99.90;;;;;;5093839;28;20016;-74
2021/12/28 04:18:09;;;;;;;8.73;4.70;;;7.80;99.90;;;;;;5094150;28;20035;-73
2021/12/28 04:20:35;;;;;;;11.23;4.82;;;7.80;99.90;;;;;;5093690;28;20028;-73
2021/12/28 04:23:00;;;;;;;11.07;4.78;;;7.80;99.90;;;;;;5075781;28;20165;-72
2021/12/28 04:25:26;;;;;;;12.60;5.22;;;7.90;99.90;;;;;;5093581;28;20089;-72
2021/12/28 04:27:52;;;;;;;11.43;5.28;;;7.90;99.90;;;;;;5093607;28;20568;-72
2021/12/28 04:30:18;;;;;;;8.07;4.20;;;7.90;99.90;;;;;;5093441;28;20030;-73
2021/12/28 04:32:44;;;;;;;10.02;5.20;;;7.90;99.90;;;;;;5093506;28;20030;-73
2021/12/28 04:35:11;;;;;;;6.90;4.30;;;7.90;99.90;;;;;;5093482;28;20024;-73
2021/12/28 04:37:37;;;;;;;9.23;5.13;;;7.90;99.90;;;;;;5094119;28;20028;-72
2021/12/28 04:40:06;;;;;;;10.70;5.18;;;7.90;99.90;;;;;;5093078;28;20032;-73
2021/12/28 04:42:32;;;;;;;9.52;4.85;;;7.90;99.90;;;;;;5093432;28;20093;-72
2021/12/28 04:44:58;;;;;;;11.85;4.70;;;7.90;99.90;;;;;;5075315;28;20457;-72
2021/12/28 04:47:23;;;;;;;10.43;4.53;;;7.90;99.90;;;;;;5092959;28;20035;-73
2021/12/28 04:49:49;;;;;;;8.18;4.40;;;8.00;99.90;;;;;;5092998;28;20039;-72
2021/12/28 04:52:15;;;;;;;10.98;4.82;;;7.90;99.90;;;;;;5093360;28;20449;-73
2021/12/28 04:54:41;;;;;;;7.95;4.10;;;7.90;99.90;;;;;;5075759;28;20012;-73
2021/12/28 04:57:07;;;;;;;8.73;4.78;;;8.00;99.90;;;;;;5093401;28;20035;-73
2021/12/28 04:59:34;;;;;;;8.40;4.18;;;8.00;99.90;;;;;;5093176;28;20024;-73
2021/12/28 05:01:59;;;;;;;9.10;4.50;;;8.00;99.90;;;;;;5075303;28;20370;-73
2021/12/28 05:04:25;;;;;;;8.98;4.43;;;8.00;99.90;;;;;;5093322;28;20031;-72
2021/12/28 05:06:53;;;;;;;7.07;3.78;;;8.00;99.90;;;;;;5093178;28;20024;-73
2021/12/28 05:09:19;;;;;;;9.20;4.63;;;8.00;99.90;;;;;;5093038;28;20035;-75
2021/12/28 05:11:45;;;;;;;9.65;4.32;;;8.00;99.90;;;;;;5074973;28;20028;-72
2021/12/28 05:14:11;;;;;;;7.97;4.35;;;8.00;99.90;;;;;;5093012;28;20021;-72
2021/12/28 05:16:37;;;;;;;8.18;4.38;;;8.00;99.90;;;;;;5092960;28;20178;-72
2021/12/28 05:19:05;;;;;;;10.77;4.88;;;8.10;99.90;;;;;;5092932;28;20063;-72
2021/12/28 05:21:32;;;;;;;9.65;4.20;;;8.10;99.90;;;;;;5075509;28;20020;-73
2021/12/28 05:23:58;;;;;;;9.98;4.82;;;8.10;99.90;;;;;;5077141;28;20023;-73
2021/12/28 05:26:24;;;;;;;10.98;5.20;;;8.10;99.90;;;;;;5096688;28;20456;-72
2021/12/28 05:28:50;;;;;;;10.65;4.72;;;8.10;99.90;;;;;;5096838;28;20407;-72
2021/12/28 05:31:16;;;;;;;9.93;4.25;;;8.10;99.90;;;;;;5096904;28;20396;-73
2021/12/28 05:33:42;;;;;;;14.18;4.68;;;8.10;99.90;;;;;;5096854;28;20464;-73
2021/12/28 05:36:08;;;;;;;11.13;4.40;;;8.10;99.90;;;;;;5096544;28;20020;-72
2021/12/28 05:38:35;;;;;;;11.52;4.10;;;8.10;99.90;;;;;;5096647;28;20028;-72
2021/12/28 05:41:01;;;;;;;8.30;3.65;;;8.10;99.90;;;;;;5096859;28;20027;-72
2021/12/28 05:43:27;;;;;;;10.88;3.90;;;8.10;99.90;;;;;;5096426;28;20024;-73
2021/12/28 05:45:52;;;;;;;8.52;3.70;;;8.10;99.90;;;;;;5078347;28;20419;-72
2021/12/28 05:48:18;;;;;;;9.00;4.18;;;8.10;99.90;;;;;;5079030;28;20039;-72
2021/12/28 05:50:44;;;;;;;8.90;3.70;;;8.20;99.90;;;;;;5078342;28;20376;-72
2021/12/28 05:53:09;;;;;;;7.00;3.53;;;8.20;99.90;;;;;;5096313;28;20490;-73
2021/12/28 05:55:35;;;;;;;6.47;3.53;;;8.20;99.90;;;;;;5096390;28;20417;-72
2021/12/28 05:58:01;;;;;;;10.98;3.60;;;8.20;99.90;;;;;;5096270;28;20024;-72
2021/12/28 06:00:28;;;;;;;8.30;3.65;;;8.20;99.90;;;;;;5096097;28;20020;-72
2021/12/28 06:02:55;;;;;;;10.88;3.83;;;8.20;99.90;;;;;;5096347;28;20036;-73
2021/12/28 06:05:22;;;;;;;8.10;3.15;;;8.20;99.90;;;;;;5078222;28;20043;-73
2021/12/28 06:07:47;;;;;;;8.68;3.28;;;8.10;99.90;;;;;;5096260;28;20032;-73
2021/12/28 06:10:14;;;;;;;8.70;3.13;;;8.10;99.90;;;;;;5096265;28;20034;-73
2021/12/28 06:12:40;;;;;;;5.70;3.05;;;8.10;99.90;;;;;;5096110;28;20020;-74
2021/12/28 06:15:07;;;;;;;10.82;3.30;;;8.10;99.90;;;;;;5096463;28;20021;-73
2021/12/28 06:17:33;;;;;;;10.40;3.25;;;8.10;99.90;;;;;;5096191;28;20354;-73
2021/12/28 06:19:59;;;;;;;8.50;3.28;;;8.10;99.90;;;;;;5077716;28;20024;-73
2021/12/28 06:22:25;;;;;;;7.57;2.75;;;8.20;99.90;;;;;;5077761;28;20097;-73
2021/12/28 06:24:51;;;;;;;9.27;3.15;;;8.20;99.90;;;;;;5096041;28;20024;-73
2021/12/28 06:27:18;;;;;;;5.78;2.92;;;8.20;99.90;;;;;;5077651;28;20028;-72
2021/12/28 06:29:43;;;;;;;7.05;2.90;;;8.20;99.90;;;;;;5077933;28;20035;-73
2021/12/28 06:32:09;;;;;;;6.70;3.38;;;8.20;99.90;;;;;;5095866;28;20103;-73
2021/12/28 06:34:35;;;;;;;8.85;2.75;;;8.20;99.90;;;;;;5077380;28;20544;-74
2021/12/28 06:37:01;;;;;;;9.00;2.85;;;8.20;99.90;;;;;;5096208;28;20488;-73
2021/12/28 06:39:27;;;;;;;4.95;2.63;;;8.20;99.90;;;;;;5093364;28;20163;-73
2021/12/28 06:41:52;;;;;;;7.78;2.85;;;8.30;99.90;;;;;;5094959;28;20062;-73
2021/12/28 06:44:18;;;;;;;5.30;2.42;;;8.30;99.90;;;;;;5094571;28;20027;-73
2021/12/28 06:46:44;;;;;;;5.47;2.40;;;8.30;99.90;;;;;;5094573;28;20031;-73
2021/12/28 06:49:09;;;;;;;7.28;2.75;;;8.30;99.90;;;;;;5094632;28;20032;-73
2021/12/28 06:51:35;;;;;;;5.82;2.25;;;8.30;99.90;;;;;;5094230;28;20020;-77
2021/12/28 06:54:01;;;;;;;6.22;2.67;;;8.30;99.90;;;;;;5076276;28;20057;-74
2021/12/28 06:56:26;;;;;;;7.65;2.38;;;8.30;99.90;;;;;;5094240;28;20209;-73
2021/12/28 06:58:52;;;;;;;6.03;2.40;;;8.30;99.90;;;;;;5094378;28;20028;-73
2021/12/28 07:01:18;;;;;;;5.72;2.22;;;8.40;99.90;;;;;;5094802;28;20024;-73
2021/12/28 07:03:44;;;;;;;8.38;2.47;;;8.30;99.90;;;;;;5094614;28;20095;-73
2021/12/28 07:06:10;;;;;;;9.02;2.20;;;8.40;99.90;;;;;;5094364;28;20460;-73
2021/12/28 07:08:36;;;;;;;11.68;3.10;;;8.30;99.90;;;;;;5094582;28;20440;-75
2021/12/28 07:11:03;;;;;;;8.68;3.05;;;8.40;99.90;;;;;;5094030;28;20468;-73
2021/12/28 07:13:28;;;;;;;8.35;2.17;;;8.40;99.90;;;;;;5076634;28;20028;-72
2021/12/28 07:15:54;;;;;;;5.78;2.30;;;8.40;99.90;;;;;;5094411;28;20422;-73
2021/12/28 07:18:20;;;;;;;4.38;1.98;;;8.40;99.90;;;;;;5094804;28;20028;-73
2021/12/28 07:20:46;;;;;;;3.90;1.63;;;8.40;99.90;;;;;;5094676;28;20472;-74
2021/12/28 07:23:11;;;;;;;5.32;2.33;;;8.40;99.90;;;;;;5094758;28;20034;-73
2021/12/28 07:25:37;;;;;;;4.90;1.70;;;8.40;99.90;;;;;;5094324;28;20070;-73
2021/12/28 07:28:04;;;;;;;7.60;2.10;;;8.40;99.90;;;;;;5094327;28;20364;-73
2021/12/28 07:30:30;;;;;;;4.65;1.92;;;8.50;99.90;;;;;;5094236;28;20023;-75
2021/12/28 07:32:55;;;;;;;7.10;2.22;;;8.50;99.90;;;;;;5093943;28;20028;-73
2021/12/28 07:35:21;;;;;;;6.28;1.98;;;8.50;99.90;;;;;;5094143;28;20024;-74
2021/12/28 07:37:47;;;;;;;6.00;2.05;;;8.50;99.90;;;;;;5094052;28;20024;-72
2021/12/28 07:40:13;;;;;;;6.20;2.30;;;8.50;99.90;;;;;;5094054;28;20119;-73
2021/12/28 07:42:40;;;;;;;6.60;2.40;;;8.60;99.90;;;;;;5093844;28;20128;-73
2021/12/28 07:45:09;;;;;;;5.55;2.40;;;8.60;99.90;;;;;;5075426;28;20020;-72
2021/12/28 07:47:35;;;;;;;12.95;2.97;;;8.60;99.90;;;;;;5075272;28;20028;-73
2021/12/28 07:50:02;;;;;;;8.20;2.17;;;8.60;99.90;;;;;;5095020;28;20024;-72
2021/12/28 07:52:28;;;;;;;7.13;1.90;;;8.60;99.90;;;;;;5075603;28;20089;-72
2021/12/28 07:54:54;;;;;;;3.38;1.58;;;8.60;99.90;;;;;;5094331;28;20024;-73
2021/12/28 07:57:19;;;;;;;8.50;2.30;;;8.70;99.90;;;;;;5093990;28;20098;-72
